Kalar Kahar Weather



Kalar Kahar's Current Weather

Temprature 39.962o clear sky

clear sky

Rain: 0 %

Min Temprature39.962o
Max Temprature39.962o
Humidity17
Wind Speed3.17 m/h
Sun Rise05:02:42
Sun Set19:20:58
Current Time: 26-Jun-2019 15:25:31
Lat/Lon: 32.78, 72.7




Kalar Kahar's Geo Location



Kalar Kahar's Weather Forecast

Time Overall Temp Min Temp Max Temp Humidity Wind Speed Rain
26-Jun-2019 (Wed)
17:00:00 clear sky 40.250 40.250 40.250 16 5.93 m/h 0 %
20:00:00 clear sky 37.850 37.847 37.850 18 2.29 m/h 0 %
23:00:00 clear sky 34.840 34.840 34.840 20 1.65 m/h 0 %
27-Jun-2019 (Thu)
02:00:00 clear sky 32.980 32.979 32.980 21 1.31 m/h 0 %
05:00:00 clear sky 31.065 31.065 31.065 21 3.67 m/h 0 %
08:00:00 broken clouds 35.550 35.550 35.550 16 1.74 m/h 0 %
11:00:00 broken clouds 38.774 38.774 38.774 15 2.23 m/h 0 %
14:00:00 clear sky 41.350 41.350 41.350 11 1.48 m/h 0 %
17:00:00 clear sky 42.180 42.180 42.180 10 3.46 m/h 0 %
20:00:00 broken clouds 38.394 38.394 38.394 17 1.97 m/h 0 %
23:00:00 scattered clouds 35.735 35.735 35.735 22 2.04 m/h 0 %
28-Jun-2019 (Fri)
02:00:00 clear sky 33.528 33.528 33.528 24 2.14 m/h 0 %
05:00:00 clear sky 31.328 31.328 31.328 28 0.93 m/h 0 %
08:00:00 broken clouds 35.739 35.739 35.739 19 2.44 m/h 0 %
11:00:00 broken clouds 39.925 39.925 39.925 14 2.93 m/h 0 %
14:00:00 clear sky 42.731 42.731 42.731 11 0.58 m/h 0 %
17:00:00 clear sky 38.950 38.950 38.950 19 13.2 m/h 0 %
20:00:00 clear sky 38.950 38.950 38.950 18 0.42 m/h 0 %
23:00:00 clear sky 36.572 36.572 36.572 20 1.14 m/h 0 %
29-Jun-2019 (Sat)
02:00:00 clear sky 34.972 34.972 34.972 24 3.93 m/h 0 %
05:00:00 clear sky 33.129 33.129 33.129 28 2.37 m/h 0 %
08:00:00 clear sky 37.237 37.237 37.237 21 1.96 m/h 0 %
11:00:00 clear sky 42.150 42.150 42.150 13 2.59 m/h 0 %
14:00:00 clear sky 44.750 44.750 44.750 10 0.53 m/h 0 %
17:00:00 clear sky 44.791 44.791 44.791 11 7.26 m/h 0 %
20:00:00 light rain 40.850 40.850 40.850 13 7.85 m/h 25 %
23:00:00 light rain 38.550 38.550 38.550 16 2 m/h 6 %
30-Jun-2019 (Sun)
02:00:00 light rain 35.736 35.736 35.736 18 2.78 m/h 25 %
05:00:00 clear sky 33.642 33.642 33.642 22 1.06 m/h 0 %
08:00:00 scattered clouds 37.832 37.832 37.832 16 2.84 m/h 0 %
11:00:00 few clouds 41.618 41.618 41.618 13 2.52 m/h 0 %
14:00:00 clear sky 44.109 44.109 44.109 11 1.05 m/h 0 %
17:00:00 few clouds 44.550 44.550 44.550 12 1.44 m/h 0 %
20:00:00 light rain 42.050 42.050 42.050 15 1.3 m/h 6 %
23:00:00 scattered clouds 38.450 38.450 38.450 20 3.43 m/h 0 %
01-Jul-2019 (Mon)
02:00:00 clear sky 36.150 36.150 36.150 22 5.07 m/h 0 %
05:00:00 clear sky 33.735 33.735 33.735 28 0.56 m/h 0 %
08:00:00 clear sky 37.750 37.750 37.750 21 1.52 m/h 0 %
11:00:00 clear sky 42.250 42.250 42.250 15 0.48 m/h 0 %
14:00:00 clear sky 45.250 45.250 45.250 11 0.39 m/h 0 %

Famous Cities (60)